createdAt,value
2019-05-03T00:02:28.829Z,11.20
2019-05-03T00:05:25.632Z,11.30
2019-05-03T00:08:05.175Z,11.30
2019-05-03T00:10:37.341Z,11.30
2019-05-03T00:13:08.180Z,11.30
2019-05-03T00:15:48.398Z,11.30
2019-05-03T00:18:19.177Z,11.30
2019-05-03T00:20:50.092Z,11.30
2019-05-03T00:23:22.682Z,11.30
2019-05-03T00:25:52.952Z,11.30
2019-05-03T00:28:26.432Z,11.30
2019-05-03T00:30:56.945Z,11.30
2019-05-03T00:33:28.343Z,11.30
2019-05-03T00:36:22.381Z,11.30
2019-05-03T00:38:56.227Z,11.30
2019-05-03T00:41:26.710Z,11.30
2019-05-03T00:43:57.253Z,11.30
2019-05-03T00:46:27.755Z,11.40
2019-05-03T00:48:58.313Z,11.30
2019-05-03T00:51:29.224Z,11.40
2019-05-03T00:54:02.000Z,11.40
2019-05-03T00:56:32.276Z,11.40
2019-05-03T00:59:02.937Z,11.40
2019-05-03T01:01:33.350Z,11.30
2019-05-03T01:04:04.499Z,11.30
2019-05-03T01:06:35.005Z,11.20
2019-05-03T01:09:11.838Z,11.10
2019-05-03T01:11:42.444Z,11.10
2019-05-03T01:14:13.206Z,11.00
2019-05-03T01:16:44.011Z,10.90
2019-05-03T01:19:14.741Z,10.90
2019-05-03T01:21:45.343Z,10.90
2019-05-03T01:24:18.258Z,10.90
2019-05-03T01:26:48.415Z,10.90
2019-05-03T01:29:19.486Z,10.90
2019-05-03T01:31:50.261Z,10.90
2019-05-03T01:34:21.899Z,10.90
2019-05-03T01:36:53.453Z,10.00
2019-05-03T01:39:23.881Z,10.90
2019-05-03T01:41:54.388Z,10.90
2019-05-03T01:44:24.894Z,10.80
2019-05-03T01:46:56.999Z,10.70
2019-05-03T01:49:49.119Z,10.60
2019-05-03T01:52:24.695Z,10.50
2019-05-03T01:54:55.164Z,10.30
2019-05-03T01:57:25.835Z,10.10
2019-05-03T01:59:56.220Z,10.00
2019-05-03T02:02:43.086Z,9.80
2019-05-03T02:05:38.164Z,9.90
2019-05-03T02:08:09.999Z,9.90
2019-05-03T02:10:40.456Z,9.70
2019-05-03T02:13:12.282Z,9.60
2019-05-03T02:15:43.191Z,9.50
2019-05-03T02:18:15.165Z,9.50
2019-05-03T02:20:45.686Z,9.40
2019-05-03T02:23:16.602Z,9.40
2019-05-03T02:25:55.958Z,9.30
2019-05-03T02:28:19.515Z,9.20
2019-05-03T02:30:49.994Z,9.20
2019-05-03T02:33:23.188Z,9.10
2019-05-03T02:35:53.459Z,9.10
2019-05-03T02:38:24.739Z,9.00
2019-05-03T02:40:55.453Z,9.00
2019-05-03T02:43:30.926Z,8.90
2019-05-03T02:46:20.264Z,9.00
2019-05-03T02:49:15.519Z,9.00
2019-05-03T02:51:46.188Z,9.00
2019-05-03T02:54:16.702Z,9.00
2019-05-03T02:56:47.416Z,9.00
2019-05-03T02:59:18.141Z,9.00
2019-05-03T03:01:48.843Z,9.10
2019-05-03T03:04:19.937Z,9.00
2019-05-03T03:06:51.952Z,9.00
2019-05-03T03:09:26.023Z,9.00
2019-05-03T03:11:59.986Z,9.00
2019-05-03T03:14:36.042Z,9.00
2019-05-03T03:17:08.005Z,8.90
2019-05-03T03:19:40.765Z,8.80
2019-05-03T03:22:12.078Z,8.70
2019-05-03T03:24:45.938Z,8.60
2019-05-03T03:27:20.474Z,8.50
2019-05-03T03:30:08.129Z,8.60
2019-05-03T03:32:41.030Z,8.60
2019-05-03T03:35:29.825Z,8.60
2019-05-03T03:37:57.544Z,8.60
2019-05-03T03:40:29.907Z,8.70
2019-05-03T03:43:05.079Z,8.70
2019-05-03T03:45:37.691Z,8.50
2019-05-03T03:48:09.351Z,8.40
2019-05-03T03:50:45.758Z,8.40
2019-05-03T03:53:18.450Z,8.30
2019-05-03T03:55:50.042Z,8.30
2019-05-03T03:58:22.702Z,8.30
2019-05-03T04:00:55.502Z,7.80
2019-05-03T04:03:26.235Z,8.20
2019-05-03T04:06:05.831Z,8.10
2019-05-03T04:08:37.134Z,8.10
2019-05-03T04:11:07.716Z,8.10
2019-05-03T04:13:41.204Z,8.20
2019-05-03T04:16:25.700Z,8.10
2019-05-03T04:19:21.868Z,8.20
2019-05-03T04:21:52.496Z,8.30
2019-05-03T04:24:25.681Z,8.30
2019-05-03T04:27:15.606Z,8.30
2019-05-03T04:29:38.702Z,8.30
2019-05-03T04:32:10.600Z,8.30
2019-05-03T04:34:41.748Z,8.50
2019-05-03T04:37:16.145Z,8.70
2019-05-03T04:39:47.077Z,8.80
2019-05-03T04:42:17.476Z,8.90
2019-05-03T04:44:47.915Z,9.10
2019-05-03T04:47:18.359Z,9.40
2019-05-03T04:49:48.812Z,9.60
2019-05-03T04:52:19.659Z,9.70
2019-05-03T04:54:56.415Z,9.90
2019-05-03T04:57:39.995Z,10.00
2019-05-03T04:59:59.778Z,9.80
2019-05-03T05:02:30.335Z,10.00
2019-05-03T05:05:00.773Z,10.10
2019-05-03T05:07:31.337Z,9.90
2019-05-03T05:10:04.622Z,10.00
2019-05-03T05:12:35.633Z,10.00
2019-05-03T05:15:06.972Z,10.00
2019-05-03T05:17:59.156Z,10.10
2019-05-03T05:20:55.456Z,9.90
2019-05-03T05:23:27.221Z,10.10
2019-05-03T05:26:14.882Z,10.20
2019-05-03T05:28:52.425Z,10.30
2019-05-03T05:31:22.993Z,10.40
2019-05-03T05:33:56.023Z,10.40
2019-05-03T05:36:26.322Z,10.40
2019-05-03T05:38:56.873Z,10.50
2019-05-03T05:41:27.455Z,10.50
2019-05-03T05:44:01.635Z,10.40
2019-05-03T05:46:38.984Z,10.30
2019-05-03T05:49:14.685Z,10.40
2019-05-03T05:51:45.239Z,10.30
2019-05-03T05:54:15.703Z,10.40
2019-05-03T05:57:05.043Z,10.40
2019-05-03T05:59:56.300Z,10.40
2019-05-03T06:02:27.078Z,10.50
2019-05-03T06:04:57.591Z,10.70
2019-05-03T06:07:46.921Z,11.30
2019-05-03T06:10:27.481Z,11.10
2019-05-03T06:13:04.924Z,11.10
2019-05-03T06:15:54.799Z,11.00
2019-05-03T06:18:31.172Z,10.70
2019-05-03T06:21:08.932Z,10.30
2019-05-03T06:23:45.149Z,10.40
2019-05-03T06:26:34.728Z,10.60
2019-05-03T06:29:05.420Z,10.80
2019-05-03T06:32:00.026Z,10.50
2019-05-03T06:34:30.485Z,10.60
2019-05-03T06:37:04.493Z,10.70
2019-05-03T06:39:35.316Z,10.40
2019-05-03T06:42:09.927Z,10.40
2019-05-03T06:44:38.284Z,10.40
2019-05-03T06:47:10.473Z,10.40
2019-05-03T06:49:44.923Z,10.30
2019-05-03T06:52:14.751Z,10.30
2019-05-03T06:54:45.308Z,10.50
2019-05-03T06:57:18.605Z,10.50
2019-05-03T07:00:10.554Z,10.50
2019-05-03T07:02:50.896Z,10.60
2019-05-03T07:05:44.460Z,10.50
2019-05-03T07:08:32.136Z,10.20
2019-05-03T07:11:08.348Z,10.00
2019-05-03T07:13:38.736Z,10.00
2019-05-03T07:16:09.505Z,10.10
2019-05-03T07:18:40.176Z,10.10
2019-05-03T07:21:10.630Z,10.00
2019-05-03T07:23:41.457Z,10.00
2019-05-03T07:26:11.942Z,10.20
2019-05-03T07:28:47.166Z,10.30
2019-05-03T07:31:15.105Z,10.30
2019-05-03T07:33:45.887Z,10.40
2019-05-03T07:36:16.353Z,10.50
2019-05-03T07:38:46.845Z,10.50
2019-05-03T07:41:17.326Z,10.30
2019-05-03T07:43:47.851Z,10.40
2019-05-03T07:46:18.350Z,10.30
2019-05-03T07:48:49.823Z,10.40
2019-05-03T07:51:20.113Z,10.30
2019-05-03T07:53:50.717Z,10.10
2019-05-03T07:56:25.343Z,10.00
2019-05-03T07:59:02.205Z,10.00
2019-05-03T08:01:37.348Z,10.10
2019-05-03T08:04:08.878Z,10.50
2019-05-03T08:06:39.340Z,11.00
2019-05-03T08:09:10.338Z,11.10
2019-05-03T08:11:40.861Z,11.60
2019-05-03T08:14:11.408Z,12.10
2019-05-03T08:16:41.807Z,12.20
2019-05-03T08:19:15.116Z,12.40
2019-05-03T08:21:45.610Z,11.50
2019-05-03T08:24:16.300Z,12.00
2019-05-03T08:26:47.128Z,12.10
2019-05-03T08:29:19.554Z,12.30
2019-05-03T08:32:02.620Z,12.80
2019-05-03T08:34:50.767Z,13.20
2019-05-03T08:37:40.062Z,13.00
2019-05-03T08:40:10.589Z,12.20
2019-05-03T08:42:44.466Z,12.70
2019-05-03T08:45:15.306Z,12.40
2019-05-03T08:47:46.998Z,12.20
2019-05-03T08:50:21.369Z,12.40
2019-05-03T08:52:49.847Z,12.80
2019-05-03T08:55:20.455Z,12.50
2019-05-03T08:57:50.915Z,12.40
2019-05-03T09:00:24.933Z,12.30
2019-05-03T09:02:55.534Z,12.60
2019-05-03T09:05:27.835Z,12.40
2019-05-03T09:07:58.177Z,12.20
2019-05-03T09:10:40.778Z,11.70
2019-05-03T09:13:18.941Z,11.50
2019-05-03T09:15:49.920Z,11.40
2019-05-03T09:18:20.397Z,11.10
2019-05-03T09:20:50.972Z,11.20
2019-05-03T09:23:23.405Z,11.70
2019-05-03T09:25:55.011Z,12.10
2019-05-03T09:28:28.926Z,11.50
2019-05-03T09:30:57.993Z,11.40
2019-05-03T09:33:28.456Z,11.50
2019-05-03T09:36:02.036Z,12.10
2019-05-03T09:38:32.467Z,12.90
2019-05-03T09:41:05.200Z,13.20
2019-05-03T09:43:35.855Z,12.80
2019-05-03T09:46:06.529Z,12.90
2019-05-03T09:48:37.141Z,12.70
2019-05-03T09:51:07.441Z,12.60
2019-05-03T09:53:46.041Z,11.80
2019-05-03T09:56:18.383Z,11.90
2019-05-03T09:58:49.088Z,11.70
2019-05-03T10:01:21.523Z,11.90
2019-05-03T10:03:52.182Z,12.20
2019-05-03T10:06:25.039Z,12.20
2019-05-03T10:08:57.348Z,12.30
2019-05-03T10:11:27.931Z,12.10
2019-05-03T10:13:58.637Z,12.00
2019-05-03T10:16:31.564Z,12.60
2019-05-03T10:19:08.852Z,13.20
2019-05-03T10:21:42.249Z,13.10
2019-05-03T10:24:12.796Z,13.20
2019-05-03T10:26:45.542Z,12.60
2019-05-03T10:29:16.735Z,12.30
2019-05-03T10:31:57.982Z,12.40
2019-05-03T10:34:28.340Z,11.90
2019-05-03T10:36:59.280Z,11.40
2019-05-03T10:39:30.188Z,11.70
2019-05-03T10:42:01.079Z,11.80
2019-05-03T10:44:31.674Z,11.90
2019-05-03T10:47:02.081Z,12.40
2019-05-03T10:49:32.693Z,12.70
2019-05-03T10:52:05.952Z,12.20
2019-05-03T10:54:36.369Z,12.10
2019-05-03T10:57:15.933Z,12.20
2019-05-03T10:59:46.722Z,12.20
2019-05-03T11:02:35.079Z,12.20
2019-05-03T11:05:05.957Z,11.90
2019-05-03T11:07:36.303Z,12.30
2019-05-03T11:10:07.678Z,12.50
2019-05-03T11:12:38.406Z,12.20
2019-05-03T11:15:09.670Z,12.70
2019-05-03T11:17:40.090Z,12.50
2019-05-03T11:20:10.652Z,12.40
2019-05-03T11:22:41.077Z,12.80
2019-05-03T11:25:11.999Z,12.50
2019-05-03T11:27:50.550Z,12.70
2019-05-03T11:30:21.046Z,12.60
2019-05-03T11:33:10.300Z,11.90
2019-05-03T11:36:12.182Z,12.00
2019-05-03T11:38:45.569Z,12.10
2019-05-03T11:41:29.194Z,12.10
2019-05-03T11:43:48.474Z,11.80
2019-05-03T11:46:18.926Z,12.20
2019-05-03T11:48:51.943Z,13.10
2019-05-03T11:51:24.487Z,13.10
2019-05-03T11:53:54.890Z,12.80
2019-05-03T11:56:25.921Z,13.50
2019-05-03T11:58:56.958Z,13.20
2019-05-03T12:01:37.880Z,12.90
2019-05-03T12:04:08.347Z,13.00
2019-05-03T12:06:38.753Z,13.10
2019-05-03T12:09:09.348Z,13.20
2019-05-03T12:11:40.935Z,12.50
2019-05-03T12:14:12.067Z,12.80
2019-05-03T12:17:23.902Z,12.60
2019-05-03T12:19:28.170Z,12.30
2019-05-03T12:21:56.035Z,12.50
2019-05-03T12:24:27.225Z,12.90
2019-05-03T12:26:58.543Z,12.70
2019-05-03T12:29:28.952Z,13.00
2019-05-03T12:31:59.503Z,12.80
2019-05-03T12:34:36.034Z,12.60
2019-05-03T12:37:06.524Z,12.60
2019-05-03T12:39:37.173Z,12.80
2019-05-03T12:42:08.743Z,12.40
2019-05-03T12:44:39.301Z,12.80
2019-05-03T12:47:10.163Z,13.20
2019-05-03T12:49:41.121Z,13.40
2019-05-03T12:52:12.130Z,13.60
2019-05-03T12:54:42.847Z,13.40
2019-05-03T12:57:15.389Z,13.60
2019-05-03T13:00:10.171Z,13.40
2019-05-03T13:02:44.816Z,13.30
2019-05-03T13:05:15.544Z,13.00
2019-05-03T13:07:50.667Z,13.10
2019-05-03T13:10:23.332Z,12.90
2019-05-03T13:13:00.501Z,13.60
2019-05-03T13:15:30.987Z,13.60
2019-05-03T13:18:01.478Z,14.40
2019-05-03T13:20:35.875Z,14.90
2019-05-03T13:23:06.219Z,14.70
2019-05-03T13:25:36.823Z,14.30
2019-05-03T13:28:07.730Z,14.20
2019-05-03T13:30:38.227Z,14.00
2019-05-03T13:33:10.941Z,13.80
2019-05-03T13:35:41.375Z,14.00
2019-05-03T13:38:12.525Z,14.60
2019-05-03T13:40:45.163Z,14.70
2019-05-03T13:43:15.225Z,15.30
2019-05-03T13:45:46.259Z,15.10
2019-05-03T13:48:20.987Z,15.10
2019-05-03T13:50:49.620Z,14.80
2019-05-03T13:53:20.045Z,14.70
2019-05-03T13:55:50.665Z,14.70
2019-05-03T13:58:21.240Z,14.70
2019-05-03T14:00:51.693Z,14.50
2019-05-03T14:03:22.681Z,14.00
2019-05-03T14:05:55.183Z,13.70
2019-05-03T14:08:25.902Z,13.50
2019-05-03T14:10:56.401Z,13.40
2019-05-03T14:13:26.805Z,13.10
2019-05-03T14:15:57.469Z,13.00
2019-05-03T14:18:27.946Z,13.00
2019-05-03T14:21:17.199Z,13.00
2019-05-03T14:24:05.275Z,13.10
2019-05-03T14:26:35.957Z,13.40
2019-05-03T14:29:06.801Z,14.00
2019-05-03T14:31:37.748Z,14.10
2019-05-03T14:34:08.192Z,14.20
2019-05-03T14:36:38.687Z,14.00
2019-05-03T14:39:10.821Z,13.80
2019-05-03T14:41:41.284Z,13.90
2019-05-03T14:44:14.511Z,14.50
2019-05-03T14:46:45.878Z,14.60
2019-05-03T14:49:16.630Z,14.40
2019-05-03T14:51:47.019Z,14.10
2019-05-03T14:54:21.211Z,13.50
2019-05-03T14:57:01.222Z,13.30
2019-05-03T14:59:50.461Z,13.20
2019-05-03T15:02:43.694Z,13.70
2019-05-03T15:05:10.927Z,14.30
2019-05-03T15:07:41.622Z,15.00
2019-05-03T15:10:12.481Z,15.00
2019-05-03T15:12:45.016Z,15.00
2019-05-03T15:15:15.358Z,14.10
2019-05-03T15:17:48.613Z,14.20
2019-05-03T15:20:19.503Z,13.90
2019-05-03T15:22:50.113Z,13.80
2019-05-03T15:25:21.223Z,13.50
2019-05-03T15:27:51.640Z,13.40
2019-05-03T15:30:22.579Z,14.10
2019-05-03T15:32:57.647Z,14.20
2019-05-03T15:35:25.990Z,14.30
2019-05-03T15:37:56.720Z,14.70
2019-05-03T15:40:27.063Z,14.50
2019-05-03T15:43:22.424Z,14.90
2019-05-03T15:46:10.980Z,15.00
2019-05-03T15:48:47.216Z,15.00
2019-05-03T15:51:17.767Z,13.90
2019-05-03T15:53:48.148Z,14.30
2019-05-03T15:56:18.792Z,14.50
2019-05-03T15:58:49.694Z,14.50
2019-05-03T16:01:20.224Z,14.40
2019-05-03T16:03:51.038Z,14.40
2019-05-03T16:06:40.858Z,14.40
2019-05-03T16:09:12.207Z,14.60
2019-05-03T16:11:44.956Z,14.60
2019-05-03T16:14:15.809Z,14.20
2019-05-03T16:16:46.274Z,14.00
2019-05-03T16:19:16.729Z,14.00
2019-05-03T16:21:47.717Z,13.70
2019-05-03T16:24:18.432Z,13.60
2019-05-03T16:27:14.317Z,13.00
2019-05-03T16:29:46.238Z,12.90
2019-05-03T16:32:16.995Z,13.10
2019-05-03T16:34:47.475Z,13.20
2019-05-03T16:37:17.949Z,13.30
2019-05-03T16:39:48.358Z,13.50
2019-05-03T16:42:19.142Z,13.70
2019-05-03T16:44:49.657Z,13.60
2019-05-03T16:47:20.528Z,13.90
2019-05-03T16:49:51.726Z,13.90
2019-05-03T16:52:22.202Z,13.60
2019-05-03T16:54:54.705Z,13.60
2019-05-03T16:57:24.992Z,13.90
2019-05-03T16:59:55.553Z,13.90
2019-05-03T17:02:26.012Z,13.70
2019-05-03T17:05:04.762Z,13.50
2019-05-03T17:07:40.011Z,13.50
2019-05-03T17:10:25.542Z,13.60
2019-05-03T17:12:56.993Z,13.90
2019-05-03T17:15:29.609Z,13.80
2019-05-03T17:18:00.131Z,13.70
2019-05-03T17:20:30.569Z,13.80
2019-05-03T17:23:01.176Z,13.80
2019-05-03T17:25:32.773Z,13.90
2019-05-03T17:28:05.035Z,13.70
2019-05-03T17:30:37.423Z,13.60
2019-05-03T17:33:07.992Z,13.30
2019-05-03T17:35:38.676Z,12.80
2019-05-03T17:38:09.282Z,13.10
2019-05-03T17:40:57.255Z,12.40
2019-05-03T17:43:31.484Z,12.40
2019-05-03T17:46:01.836Z,12.30
2019-05-03T17:48:32.291Z,12.30
2019-05-03T17:51:04.435Z,12.20
2019-05-03T17:53:54.868Z,12.30
2019-05-03T17:56:44.405Z,12.30
2019-05-03T17:59:30.453Z,12.20
2019-05-03T18:02:19.011Z,12.10
2019-05-03T18:05:17.156Z,12.10
2019-05-03T18:08:25.108Z,12.00
2019-05-03T18:11:09.216Z,12.10
2019-05-03T18:13:38.793Z,12.00
2019-05-03T18:16:09.662Z,11.90
2019-05-03T18:18:40.139Z,11.90
2019-05-03T18:21:10.731Z,11.90
2019-05-03T18:23:42.620Z,11.90
2019-05-03T18:26:14.429Z,11.90
2019-05-03T18:28:45.112Z,11.80
2019-05-03T18:31:15.638Z,11.80
2019-05-03T18:33:46.119Z,11.80
2019-05-03T18:36:17.359Z,11.70
2019-05-03T18:38:48.113Z,11.60
2019-05-03T18:41:18.674Z,11.50
2019-05-03T18:44:08.139Z,11.50
2019-05-03T18:46:44.572Z,11.50
2019-05-03T18:49:15.069Z,11.40
2019-05-03T18:51:45.553Z,11.30
2019-05-03T18:54:16.472Z,11.30
2019-05-03T18:56:47.059Z,11.30
2019-05-03T18:59:17.654Z,11.20
2019-05-03T19:01:48.254Z,11.20
2019-05-03T19:04:32.339Z,11.10
2019-05-03T19:07:04.352Z,11.10
2019-05-03T19:09:57.021Z,11.10
2019-05-03T19:12:40.691Z,11.10
2019-05-03T19:15:12.037Z,11.00
2019-05-03T19:18:07.192Z,11.00
2019-05-03T19:20:37.812Z,11.00
2019-05-03T19:23:08.241Z,11.00
2019-05-03T19:25:46.920Z,11.00
2019-05-03T19:28:11.223Z,11.00
2019-05-03T19:30:44.392Z,11.00
2019-05-03T19:33:15.685Z,10.90
2019-05-03T19:35:47.192Z,11.00
2019-05-03T19:38:19.549Z,10.90
2019-05-03T19:40:50.313Z,10.90
2019-05-03T19:43:21.003Z,10.90
2019-05-03T19:45:53.060Z,10.90
2019-05-03T19:52:15.542Z,10.90
2019-05-03T19:54:46.451Z,10.80
2019-05-03T19:57:18.968Z,10.80
2019-05-03T19:59:56.394Z,10.80
2019-05-03T20:02:45.460Z,10.70
2019-05-03T20:05:42.018Z,10.60
2019-05-03T20:08:35.240Z,10.60
2019-05-03T20:11:16.135Z,10.60
2019-05-03T20:13:47.259Z,10.70
2019-05-03T20:16:17.791Z,10.60
2019-05-03T20:18:49.110Z,10.60
2019-05-03T20:21:25.130Z,10.50
2019-05-03T20:23:55.667Z,10.30
2019-05-03T20:26:26.362Z,10.40
2019-05-03T20:28:57.279Z,10.40
2019-05-03T20:31:27.776Z,10.40
2019-05-03T20:33:58.800Z,10.40
2019-05-03T20:36:29.530Z,10.30
2019-05-03T20:39:00.167Z,10.30
2019-05-03T20:41:30.880Z,10.30
2019-05-03T20:44:08.126Z,10.30
2019-05-03T20:46:48.444Z,10.30
2019-05-03T20:49:19.152Z,10.20
2019-05-03T20:51:51.358Z,10.10
2019-05-03T20:54:22.038Z,10.10
2019-05-03T20:56:54.564Z,10.10
2019-05-03T20:59:25.355Z,10.10
2019-05-03T21:01:56.331Z,10.00
2019-05-03T21:04:27.465Z,10.00
2019-05-03T21:07:04.926Z,10.00
2019-05-03T21:09:36.048Z,10.00
2019-05-03T21:12:06.531Z,10.00
2019-05-03T21:14:37.107Z,9.90
2019-05-03T21:17:18.241Z,9.90
2019-05-03T21:20:14.801Z,9.90
2019-05-03T21:22:48.334Z,9.80
2019-05-03T21:25:25.084Z,9.70
2019-05-03T21:27:55.621Z,9.60
2019-05-03T21:30:26.425Z,9.60
2019-05-03T21:32:57.086Z,9.60
2019-05-03T21:35:40.971Z,9.70
2019-05-03T21:38:00.292Z,9.70
2019-05-03T21:40:30.827Z,9.60
2019-05-03T21:43:01.344Z,9.60
2019-05-03T21:45:46.588Z,9.60
2019-05-03T21:48:21.430Z,9.60
2019-05-03T21:50:52.190Z,9.40
2019-05-03T21:53:22.692Z,9.50
2019-05-03T21:55:53.278Z,9.40
2019-05-03T21:58:24.958Z,9.40
2019-05-03T22:01:01.455Z,9.30
2019-05-03T22:03:31.858Z,9.40
2019-05-03T22:06:02.339Z,9.30
2019-05-03T22:08:34.946Z,9.20
2019-05-03T22:11:05.427Z,9.20
2019-05-03T22:13:37.042Z,9.30
2019-05-03T22:16:15.510Z,9.30
2019-05-03T22:18:46.343Z,9.30
2019-05-03T22:21:36.871Z,9.20
2019-05-03T22:24:16.877Z,9.20
2019-05-03T22:27:12.279Z,9.20
2019-05-03T22:29:44.723Z,9.10
2019-05-03T22:32:15.822Z,9.00
2019-05-03T22:34:46.796Z,9.10
2019-05-03T22:37:17.455Z,9.10
2019-05-03T22:39:48.319Z,9.20
2019-05-03T22:42:18.823Z,9.20
2019-05-03T22:44:49.586Z,9.10
2019-05-03T22:47:20.295Z,9.20
2019-05-03T22:49:50.767Z,9.20
2019-05-03T22:52:21.221Z,9.10
2019-05-03T22:54:51.597Z,9.00
2019-05-03T22:57:22.787Z,9.00
2019-05-03T22:59:54.787Z,8.90
2019-05-03T23:02:25.126Z,8.90
2019-05-03T23:04:55.710Z,8.90
2019-05-03T23:07:26.398Z,8.90
2019-05-03T23:09:56.853Z,8.90
2019-05-03T23:12:27.323Z,8.90
2019-05-03T23:14:57.985Z,9.00
2019-05-03T23:17:28.502Z,9.00
2019-05-03T23:20:05.067Z,9.10
2019-05-03T23:22:35.765Z,9.00
2019-05-03T23:25:06.457Z,9.10
2019-05-03T23:27:37.192Z,9.10
2019-05-03T23:30:07.968Z,9.10
2019-05-03T23:32:39.027Z,9.10
2019-05-03T23:35:09.863Z,9.10
2019-05-03T23:37:40.705Z,9.10
2019-05-03T23:40:11.414Z,9.00
2019-05-03T23:42:41.802Z,8.90
2019-05-03T23:45:14.794Z,9.00
2019-05-03T23:47:47.780Z,8.90
2019-05-03T23:50:20.803Z,8.90
2019-05-03T23:52:51.365Z,8.90
2019-05-03T23:55:44.922Z,9.00
2019-05-03T23:58:15.480Z,8.90
